Carson Sink, Nevada Weather observations

Data are for observation ending at time listed.
 Day   Time    Ave.   Ave.  Ave.  Vector   Max.   Stn.    Total    Solar   Ave.  
  of    of     Air    Rel.  Wind   Wind    Wind   Baro.  Precip.   Rad.    Soil  
Year   Day     Temp.  Hum.  Speed  Dir.    Gust   Pres.                    Temp. 
2016   (PST)    F      %     mph   deg.    mph     mb.     in.     W/m2     F   
------------------------------------------------------------------------------
 177   11:30   80.0    11    2.0    57      6.9   886.4    0.00    1020     84.2
 177   11:40   80.4    10    2.1    97      5.0   886.3    0.00    1022     84.7
 177   11:50   80.6    10    3.6   263      7.9   886.1    0.00    1022     85.1
 177   12:00   81.3    10    2.8    42      9.4   885.9    0.00    1021     85.5
 177   12:10   81.8    10    6.0    72     12.5   885.7    0.00    1018     86.0
 177   12:20   81.6    10    6.6   105     11.8   885.6    0.00    1016     86.5
 177   12:30   81.7    10    4.1   343      6.8   885.4    0.00    1012     86.9
 177   12:40   83.8    10    2.5    48      5.2   885.3    0.00    1005     87.4
 177   12:50   84.2     9    6.0   120     12.7   885.2    0.00     996     87.8
 177   13:00   83.9     9    5.2   146      9.9   885.1    0.00     986     88.3
 177   13:10   84.1     9    4.5   125     10.3   885.0    0.00     977     88.8
 177   13:20   84.6     9    4.8   108     10.0   884.9    0.00     964     89.2
 177   13:30   85.0     9    4.7   126      9.1   884.8    0.00     950     89.6
 177   13:40   84.8     9    4.8    22      9.7   884.7    0.00     935     90.0
 177   13:50   85.7     8    5.5   157     11.5   884.6    0.00     920     90.4
 177   14:00   85.5     8    4.4   355      8.1   884.5    0.00     904     90.7
 177   14:10   86.1     8    3.8    84      7.5   884.3    0.00     883     91.0
 177   14:20   86.8     8    5.5   248      9.3   884.2    0.00     867     91.4
 177   14:30   88.1     8    5.2   209     10.7   884.2    0.00     846     91.8
 177   14:40   87.8     8    3.2   243      7.6   884.1    0.00     823     92.1
 177   14:50   88.1     8    3.0   281      9.2   883.9    0.00     800     92.4
 177   15:00   87.5     8    3.5    38     10.2   883.7    0.00     777     92.7
 177   15:10   87.4     8    5.9   298     12.6   883.6    0.00     753     93.0
 177   15:20   87.3     8    4.8   350     11.1   883.5    0.00     721     93.3
 177   15:30   87.3     7    5.3    54      9.9   883.4    0.00     692     93.5
 177   15:40   88.4     7    4.0   338     11.9   883.3    0.00     662     93.8
 177   15:50   87.6     7    6.1    13     12.9   883.3    0.00     633     94.0
 177   16:00   87.6     7    4.0    21      9.9   883.1    0.00     604     94.2
 177   16:10   88.6     7    5.3   351     12.0   883.1    0.00     574     94.4
 177   16:20   88.4     7    6.4   314     11.6   883.0    0.00     544     94.6
 177   16:30   89.2     7    3.4   304      7.2   883.0    0.00     514     94.7
 177   16:40   89.2     7    4.1   267      8.6   882.8    0.00     481     94.9
 177   16:50   90.4     6    2.2   285      6.8   882.8    0.00     450     95.0
 177   17:00   88.8     6    5.7   349     10.3   882.7    0.00     419     95.1
 177   17:10   88.8     6    5.0   298      9.1   882.7    0.00     386     95.2
 177   17:20   88.5     6    6.7   285     11.2   882.6    0.00     354     95.3
 177   17:30   88.7     6    3.8   289      8.6   882.6    0.00     323     95.3
 177   17:40   88.8     6    4.4   300      8.7   882.6    0.00     292     95.4
 177   17:50   88.7     6    3.2   291      7.5   882.5    0.00     261     95.3
 177   18:00   89.3     6    2.3   334      7.5   882.5    0.00     231     95.3
 177   18:10   89.6     6    1.4    31      3.6   882.5    0.00     201     95.2
 177   18:20   88.9     6    3.0   306      6.1   882.6    0.00     174     95.2
 177   18:30   88.4     6    4.4   350      6.2   882.6    0.00     146     95.1
 177   18:40   88.0     6    3.5   359      5.6   882.6    0.00     114     95.0
 177   18:50   87.9     6    3.4    15      5.5   882.7    0.00      80     94.8
 177   19:00   87.7     6    2.2    20      4.2   882.7    0.00      50     94.6
 177   19:10   87.7     5    1.0    20      2.6   882.7    0.00      27     94.4
 177   19:20   86.9     6    6.3   340      8.8   882.7    0.00      11     94.2
 177   19:30   85.6     7    6.5   339      8.3   882.8    0.00       6     94.1
 177   19:40   84.7     8    5.2   339      6.1   882.9    0.00       3     93.9
 177   19:50   83.5     8    5.2   336      5.6   882.9    0.00       1     93.6
 177   20:00   82.9     9    4.5   336      5.0   883.0    0.00       0     93.3
 177   20:10   81.8     9    5.9   357      8.3   883.0    0.00       0     93.1
 177   20:20   81.1     8    7.0     3      8.6   883.1    0.00       0     92.9
 177   20:30   79.2     8    5.7     4      6.4   883.1    0.00       0     92.5
 177   20:40   78.2     9    4.7     9      6.1   883.3    0.00       0     92.2
 177   20:50   77.5    10    4.8    18      8.1   883.4    0.00       0     92.0
 177   21:00   76.6    10    5.9    48      7.7   883.6    0.00       0     91.7
 177   21:10   76.3    10    6.3    45      8.6   883.7    0.00       0     91.4
 177   21:20   75.9    10    7.7    49      8.6   883.8    0.00       0     91.1
 177   21:30   75.3    11    7.1    50      8.6   883.9    0.00       0     90.8
 177   21:40   74.5    11    7.1    56      7.9   883.9    0.00       0     90.5
 177   21:50   73.9    12    7.5    40      8.7   884.0    0.00       0     90.2
 177   22:00   73.5    12    7.3    40      8.6   884.0    0.00       0     89.9
 177   22:10   72.8    12    9.2     9     13.2   884.0    0.00       0     89.6
 177   22:20   72.8    12    9.3    21     10.8   884.1    0.00       0     89.3
 177   22:30   71.3    12    9.0    24     10.7   884.2    0.00       0     89.1
 177   22:40   73.0    12    8.9    25      9.8   884.2    0.00       0     88.8
 177   22:50   72.1    12    8.7    28     10.0   884.1    0.00       0     88.5
 177   23:00   71.8    13    7.8    27      9.6   884.2    0.00       0     88.3
 177   23:10   70.9    13    6.5    13      7.7   884.3    0.00       0     88.0
 177   23:20   70.1    13    7.4   343      9.3   884.3    0.00       0     87.7
 177   23:30   70.1    13    8.3   341      9.5   884.3    0.00       0     87.4
 177   23:40   70.2    13    8.4   340      9.5   884.2    0.00       0     87.2
 177   23:50   70.7    13    7.8   354      8.7   884.2    0.00       0     87.0
 178    0:00   70.5    14    8.5   352      9.7   884.2    0.00       0     86.7
 178    0:10   70.1    14    8.2   352     10.5   884.2    0.00       0     86.5
 178    0:20   70.1    14    6.7   352      8.3   884.3    0.00       0     86.2
 178    0:30   69.2    14    5.9    12      9.1   884.2    0.00       0     86.0
 178    0:40   69.3    14    9.0    18     11.8   884.2    0.00       0     85.7
 178    0:50   70.0    14   10.7    16     12.4   884.2    0.00       0     85.5
 178    1:00   70.3    14   10.7    15     12.2   884.2    0.00       0     85.3
 178    1:10   69.8    14    8.9    21     10.8   884.2    0.00       0     85.1
 178    1:20   69.3    14    8.3    25      9.3   884.2    0.00       0     84.8
 178    1:30   68.4    15    7.9    31      9.2   884.1    0.00       0     84.6
 178    1:40   67.9    15    7.3    40      9.0   884.1    0.00       0     84.4
 178    1:50   67.2    16    5.6    44      7.0   884.1    0.00       0     84.2
 178    2:00   66.6    16    5.8    33      7.2   884.1    0.00       0     84.0
 178    2:10   66.5    16    7.3    20      9.7   884.1    0.00       0     83.8
 178    2:20   66.6    16    9.2    17     10.8   884.0    0.00       0     83.6
 178    2:30   65.8    16    8.0    14      9.9   884.0    0.00       0     83.4
 178    2:40   65.9    16    8.6    14     10.2   884.1    0.00       0     83.2
 178    2:50   65.4    17    6.8    17      8.2   884.1    0.00       0     83.0
 178    3:00   65.4    16    8.4    15     12.0   884.2    0.00       0     82.8
 178    3:10   65.7    16    9.9    22     13.4   884.2    0.00       0     82.6
 178    3:20   64.7    17    6.8    34      8.3   884.4    0.00       0     82.5
 178    3:30   64.0    17    7.5    18      8.8   884.5    0.00       0     82.3
 178    3:40   63.8    17    7.2    10      9.3   884.6    0.00       0     82.1
 178    3:50   63.4    18    5.4    21      7.1   884.7    0.00       0     81.9
 178    4:00   63.4    18    7.4    38      8.8   884.7    0.00       0     81.7
 178    4:10   63.2    18    9.1    34     11.2   884.7    0.00       0     81.5
 178    4:20   63.2    18   11.0    28     12.8   884.8    0.00       1     81.3
 178    4:30   62.6    18   12.5    22     14.2   884.8    0.00       4     81.2
 178    4:40   61.5    19   11.7    22     14.0   884.9    0.00      11     81.0
 178    4:50   60.9    19   12.3    20     14.4   884.9    0.00      39     80.8
 178    5:00   60.6    19    9.0    34     13.5   885.0    0.00      72     80.6
 178    5:10   60.9    19    8.3    79     10.8   885.2    0.00     107     80.4
 178    5:20   61.2    19   11.4    52     14.1   885.2    0.00     139     80.3
 178    5:30   61.6    19   11.4    48     13.7   885.3    0.00     170     80.1
 178    5:40   60.8    20    9.1    68     12.0   885.4    0.00     202     79.9
 178    5:50   60.6    20    8.5    84     10.4   885.4    0.00     235     79.8
 178    6:00   60.7    21    8.0    89      9.6   885.5    0.00     269     79.6
 178    6:10   61.6    22    6.3    95      7.5   885.6    0.00     303     79.5
 178    6:20   62.4    22    5.1    92      6.6   885.8    0.00     336     79.4
 178    6:30   63.4    21    4.5    78      6.0   885.8    0.00     368     79.2
 178    6:40   64.4    20    4.5    64      6.2   885.8    0.00     401     79.1
 178    6:50   65.5    19    4.8    53      6.6   885.8    0.00     435     79.1
 178    7:00   66.9    17    6.0    74      8.2   885.8    0.00     466     79.0
 178    7:10   67.3    17    5.9    74      8.0   885.9    0.00     498     79.0
 178    7:20   68.6    16    5.3    88      7.2   886.0    0.00     529     79.0
 178    7:30   69.8    15    4.9   102      7.5   886.0    0.00     559     79.0
 178    7:40   71.5    14    4.9   116      7.3   886.1    0.00     589     79.1
 178    7:50   73.6    13    4.9   124      7.9   886.1    0.00     617     79.1
 178    8:00   74.8    12    5.8   126      8.3   886.0    0.00     646     79.2
 178    8:10   75.1    12    6.0   133      8.7   886.0    0.00     674     79.3
 178    8:20   76.3    11    6.3   134      9.9   885.9    0.00     701     79.5
 178    8:30   77.3    11    6.0   144      9.7   886.0    0.00     727     79.6
 178    8:40   77.4    11    5.6   152      9.6   885.9    0.00     753     79.8
 178    8:50   78.5    11    4.6   144      9.6   885.8    0.00     778     80.1
 178    9:00   79.7    11    6.0   173      9.8   885.7    0.00     802     80.3
 178    9:10   80.4    11    4.6   177      8.6   885.7    0.00     826     80.5
 178    9:20   81.6    10    4.6   180      8.0   885.7    0.00     848     80.9
 178    9:30   81.7    11    3.1   155      5.6   885.7    0.00     868     81.1
 178    9:40   82.7    10    2.1   186      5.4   885.6    0.00     888     81.5
 178    9:50   83.5    10    3.7   213      6.4   885.5    0.00     906     81.8
 178   10:00   83.4    10    3.7   241      7.5   885.5    0.00     923     82.2
 178   10:10   84.5    10    2.5   274      6.7   885.5    0.00     938     82.5
 178   10:20   85.6     9    2.5   244      6.4   885.4    0.00     952     82.9
 178   10:30   87.2     9    3.4   188      7.3   885.3    0.00     964     83.3
 178   10:40   86.7     9    4.0   146      7.7   885.2    0.00     976     83.8
 178   10:50   87.1     9    3.1   189      6.6   885.1    0.00     985     84.2
 178   11:00   88.5     9    1.9   131      5.1   885.0    0.00     993     84.7
 178   11:10   88.6     8    4.0   144      8.1   885.0    0.00     999     85.1
 178   11:20   88.6     8    1.7   108      4.1   885.0    0.00    1005     85.6

Return to Carson Sink graphs page.


Western Regional Climate Center,wrcc@dri.edu